New York, USA · Corporation

Jurisdiction: New York, USA
Register: New York State Department of State

This dataset includes over 2.55 million corporations and business entities registered with the Division of Corporations, New York State Department of State (NYSDOS). Each registration contains entity name, office address, mailing address, agent name and address, entity type, initial filling date, etc.

ASTORIA · Search Result

Entity Name Office Address Start Date
G&G PIZZERIA INC 43-19 Broadway, Astoria, New York 11103 2019-03-29
DC ASTORIA INC 30-25 35th Street 1/fl, Astoria, New York 11103 2019-03-29
HASSAN HOLDINGS CORP 2824 Steinway St, Num 247, Astoria, New York 11103 2019-03-29
GILL CONSTRUCTION NY LLC 28-28 29th St., Apt. C-5, Astoria, New York 11102 2019-03-29
EUROTECH STONE INC. 648-00 Astoria Boulevard, Astoria, New York 11103 2019-03-29
OTW SOLUTIONS LLC 21-17 31st Avenue, Apt. 6c, Astoria, New York 11106 2019-03-29
24-24 42ND ST LLC 24-24 42nd Street, Astoria, New York 11103 2019-03-28
S&S CHIROPRACTIC PLLC 3070 45th Street, Apt. 1rrt, Astoria, New York 11103 2019-03-28
MADHU CENTURY AUTO REPAIRS & BODY WORK INC. 3635 22nd St., Astoria, New York 11106 2019-03-28
STEINWAY FOOD INC. 2553 Steinway Street, Astoria, New York 11103 2019-03-28
ONLINE BOOKING US LLC 3105 43rd Street, Astoria, New York 11103 2019-03-28
DELTA DESIGN AND CONSULTANT INC 30-69 34th Street, Apt #2a, Astoria, New York 11103 2019-03-28
61 WALNUT ST LLC 22-41 47 Street, Astoria, New York 11105 2019-03-28
AUGUSTINE M. DIGNEO III, ENTERPRISES LLC 2543 14th Street, Astoria, New York 11102 2019-03-28
STARS IMPORT EXPORT CORP. 2051 45th Street, Suite #2, Astoria, New York 11105 2019-03-27
REBELLIOUS CREATIVES LLC 2828 35th Street #6g, Astoria, New York 11103 2019-03-27
VK 31ST CORPORATION 22-26 31st Street, Astoria, New York 11105 2019-03-27
VRANOS LLC 2255 Crescent St., Apt. 1, Astoria, New York 11105 2019-03-27
2361 31ST DEVELOPMENT LLC 23-61 31st Street, Astoria, New York 11105 2019-03-27
ALL PAWS ON TOUR LLC 1917a 21st Dr., Apt. 2, Astoria, New York 11105 2019-03-26
SWIFTDEOS LLC 22-11 Steinway St, Astoria, New York 11105 2019-03-26
SPA INFINITE CORP. 34 40 Crescent Street, Astoria, New York 11106 2019-03-26
SIP HAPPENS INCORPORATED 30-64 34th Street Apt 3a, Astoria, New York 11103 2019-03-26
CPDARTISTRY LLC 21-57 47th Street, Astoria, New York 11105 2019-03-26
THE K PLUS K PROJECT INC. 26-05 28th Street, Apt 6b, Astoria, New York 11102 2019-03-26
ZAIN ZAHID LLC 2718 Hoyt Ave. S., Apt. 6c, Astoria, New York 11102 2019-03-26
LUXURY DESIGN FURNITURE CORP 32-90 Steinway Street, Astoria, New York 11103 2019-03-25
K-9 CARE PETS NYC INC 32-75 Steinway Street, Suite 207, Astoria, New York 11103 2019-03-25
MMM MARWA CORP 3811 Ditmars Blvd 636, Astoria, New York 11105 2019-03-25
ORGANTIC GARDENS LLC 3098 44th St Apt 4r, Astoria, New York 11103 2019-03-25
CALIBREX INC 12-22 30th Ave, Astoria, New York 11102 2019-03-25
EDUCATE TO EMPOWER, INC. 21-12 22nd Drive Apt. 1f, Astoria, New York 11105 2019-03-25
TULIP SAT CORP 3145 Crescent St Suite 1a, Astoria, New York 11106 2019-03-25
DQ DWELLINGS INC 35-09 31st Ave Apt 3, Astoria, New York 11106 2019-03-25
CAROLINA POWER ESTHETIC INC. 25 42 14th Street Apt 3, Astoria, New York 11102 2019-03-25
PUNCH CARD FILMS INC. 2814 42nd Street, #d4, Astoria, New York 11103 2019-03-25
J TRADINGS NY INC. 27-10 Hoyt Avenue, Astoria, New York 11102 2019-03-25
CRESCENT STREET AUDIO SERVICES INC. 23-28 31st Avenue, Astoria, New York 11106 2019-03-22
CULTURE NYC CORP. 32-41 Steinway Street, Astoria, New York 11103 2019-03-21
AL NOOR RESTAURANT INC. 2442 Steinway Street, Astoria, New York 11103 2019-03-21
MESA CONSULTING INC 2044 33rd St, Astoria, New York 11105 2019-03-21
ALEKS TRANS, INC. 2124 31st St, Apt#6n, Astoria, New York 11105 2019-03-21
ALIENZ INCORPORATED 25-80 Steinway St. Apt. 1, Astoria, New York 11103 2019-03-21
GURU PRASADAM HOLDING INC. 27-10 Hoyt Avenue S, Astoria, New York 11102 2019-03-21
INK FLOW PRINT INC. 25-83 45th Street, Astoria, New York 11103 2019-03-21
A TASTE OF PONTOS, INC. 3403 Broadway, Suite 201, Astoria, New York 11106 2019-03-21
MAXIMIZE CO INC 2814 42nd Street, B1, Astoria, New York 11103 2019-03-21
MAGNIFIQUE LASER PLACE INC 42-12 21 Avenue, Astoria, New York 11105 2019-03-21
MISS NEW YORK SCHOLARSHIP COMPETITION, INC. 23-24 Sound Street, Astoria, New York 11105 2019-03-20
CITICORP INC 3136 42 St, Astoria, New York 11103 2019-03-20
ZHEN ZHEN BEAUTY & SPA INC 3812 30th Ave, Astoria, New York 11103 2019-03-20
JHORN ENTERPRISES LLC 2452 44th St., Apt. C6, Astoria, New York 11103 2019-03-20
MR. ADVANCE HR INC. 25-12 19th Ave, Astoria, New York 11105 2019-03-19
13-01 143 PLACE LLC 25-81 49th Street, Astoria, New York 11103 2019-03-19
THE PRECISE CENTER OF HOPE INCORPORATED 2043 19th Apt 1c, Astoria, New York 11105 2019-03-19
LINGUATECH SERVICES INC 2073 Shore Blvd, Ste 2a, Astoria, New York 11105 2019-03-19
EXL GROUP LLC 23-96 48th Street, Astoria, New York 11103 2019-03-19
2620 REAL ESATE GROUP, LLC 2620 30th Street, Astoria, New York 11102 2019-03-19
AD CAPITAL GROUP LLC 3540 30th St. #3f, Astoria, New York 11106 2019-03-18
IMV TRAVEL INC. 2056 Steinway Street, Apt 1a, Astoria, New York 11105 2019-03-18
EXPERIA MOVING INC 28-35 49th Street, Astoria, New York 11103 2019-03-18
PROCROW LLC 30-72 37th Street, #1f, Astoria, New York 11103 2019-03-18
102-30 JAMAICA AVE. REALTY LLC 30-05 30th Avenue, Suite 300, Astoria, New York 11102 2019-03-18
AUTO IT HELP INC 32-68 45th St, Astoria, New York 11103 2019-03-18
SOLACE FILMS LLC 2307 30th Drive 3b, Astoria, New York 11102 2019-03-18
320 15C KISKADEE LLC 36-11 20th Avenue, Astoria, New York 11105 2019-03-18
MAMMIS LANCASTER LIME COMPANY, LLC 4602 25th Avenue, Astoria, New York 11103 2019-03-15
MUZZUX LLC 35-37 36th Street, Astoria, New York 11106 2019-03-15
CHEF LUCAS CATERING LLC 2821 44 Street, Astoria, New York 11103-2146 2019-03-15
2115 49 STREET LLC 23-18 30th Drive, Astoria, New York 11102 2019-03-15
HIT THE LIGHTS! THEATER LIMITED LIABILITY COMPANY 23-31 29th St. Apt 1a, Astoria, New York 11105 2019-03-14
ASTORIA WELLNESS SPA INC. 28-11 Astoria Blvd, Astoria, New York 11102 2019-03-13
WATCHMAKER FILMS, INC. 35-25 29th Street, #c-6, Astoria, New York 11106 2019-03-13
DIMAGGIO DENTAL P.C. 2277 43rd Street, Astoria, New York 11105 2019-03-13
GOLDENARROWMERCH.COM L.L.C. 23-38 31st Rd., Apt. 2a, Astoria, New York 11106 2019-03-13
MD45 DEVELOPERS LLC 48-02 25th Ave., Ste. 400, Astoria, New York 11103 2019-03-13
THE MANTLE MEDIA GROUP LLC 2133 36th St., Astoria, New York 11105 2019-03-13
SEMMA CLEANING CONTRACTORS CORP. 22-15 29th Street Apt. 1, Astoria, New York 11105 2019-03-13
LLANERO CORP. 35 55 31st Street, Astoria, New York 11106 2019-03-13
MOGETEE ASTORIA LLC 30-58 Steinway St, Astoria, New York 11103 2019-03-13
ALEMAN CORP 42-16 28ave 1st Fl, Astoria, New York 11103 2019-03-13
2361 31ST LLC 2361 31street, Astoria, New York 11105 2019-03-12
REFRESH BY SHIRLEY, LLC 3251 46th Street, Astoria, New York 11103 2019-03-12
M&C MECHANICAL CORP. 21-28 Broadway, 1 Fl, Astoria, New York 11106 2019-03-12
ADVANCED COTA INC 2031 20th Street, Ste 2c, Astoria, New York 11105 2019-03-12
MIZ STUNJA LLC 25-42 14th St, Apt. 1, Astoria, New York 11102 2019-03-11
PERENNIAL PRIMROSE, LLC 28-14 31st Street, #304, Astoria, New York 11102 2019-03-11
TECHMULE LLC 22-25 21st St., Unit 2, Astoria, New York 11105 2019-03-11
MONROE DERMAGRAPHICS INC. 2168 41st St., Apt. 1r, Astoria, New York 11105 2019-03-11
MB ABAYAAT CORP. 33-42 Ninth Street, Astoria, New York 11106 2019-03-11
TGP HOUSING CORP 2834 37th Street, Apt 3f, Astoria, New York 11103 2019-03-11
TAYMOR CORP 2264 41 St, Astoria, New York 11105 2019-03-11
WHALE MUSIC LLC 3710 23rd Ave. #2, Astoria, New York 11105 2019-03-11
LIBRA TECH ZONE, INC. 2075 33rd Street, 2nd Floor, Astoria, New York 11105 2019-03-08
NASR LIMO GROUP CORP 3016 23rd St, Ste 2, Astoria, New York 11102 2019-03-08
ASTORIA HEIGHT AUTO COLLISION INC. 18-58 43rd Street, Astoria, New York 11105 2019-03-07
LEGACY CONSTRUCTION ORGANIZATION INC 30-08 45th Street, Suite 2l, Astoria, New York 11103 2019-03-07
KOFF LLC 35-09 33rd Street, Floor 1, Astoria, New York 11106 2019-03-07
ONE BEAN MARKETING INC 33-57 28th Street, Astoria, New York 11106 2019-03-07
MADISON LASER SPA LLC 25-71 22nd Street, Unit 3c, Astoria, New York 11102 2019-03-06